KCEF/CEF METAR and TAF weather

Enter ICAO airport designator
Station Type Date Time Source
KCEF METAR 2019/05/21 19:56 UTC NOAA

KCEF 211956Z 31014G20KT 10SM FEW065 SCT140 20/03 A2985 RMK AO2A PK WND 29026/04 SLP114 T02000028


Station Type Date Time Source
KCEF Decoded METAR 2019/05/21 19:56 UTC NOAA

Chicopee Falls / Westover Air Force Base, MA, United States (KCEF) 42-12N 072-32W 75M
May 21, 2019 - 03:56 PM EDT / 2019.05.21 1956 UTC
Wind: from the NW (310 degrees) at 16 MPH (14 KT) gusting to 23 MPH (20 KT):0
Visibility: 10 mile(s):0
Sky conditions: partly cloudy
Temperature: 68.0 F (20.0 C)
Dew Point: 37.0 F (2.8 C)
Relative Humidity: 31%
Pressure (altimeter): 29.85 in. Hg (1010 hPa)
ob: KCEF 211956Z 31014G20KT 10SM FEW065 SCT140 20/03 A2985 RMK AO2A PK WND 29026/04 SLP114 T02000028
cycle: 20

Station Type Date Time Source
KCEF TAF 2019/05/21 18:06 UTC NOAA

TAF TAF KCEF 211800Z 2118/2224 30015G25KT 9999 SCT060 SCT180 520004 QNH2986INS
TEMPO 2118/2124 30020G35KT 530006
BECMG 2201/2202 30012KT 9999 FEW050 520102 QNH2997INS
BECMG 2210/2211 34015G25KT 9999 FEW040 520004 QNH3015INS
BECMG 2217/2218 35010G15KT 9999 FEW035 SCT200 QNH3019INS TX21/2218Z TN08/2210Z

Example: see airport list